Time;durP1;ratioP1;P1;durP2;ratioP2;P2;SDS_P1;SDS_P2;PMS_P1;PMS_P2;Temp;Humidity;BMP_temperature;BMP_pressure;BME280_temperature;BME280_humidity;BME280_pressure;Samples;Min_cycle;Max_cycle;Signal;HPM_P1;HPM_P2
2023/08/25 00:01:46;;;;;;;15.30;12.50;;;;;;;-140.66;100.00;55571.53;5113855;28;20433;-71
2023/08/25 00:05:34;;;;;;;14.90;12.20;;;;;;;-140.66;100.00;55571.53;5114603;28;20020;-72
2023/08/25 00:09:19;;;;;;;15.48;12.68;;;;;;;-140.66;100.00;55571.53;5114760;28;20024;-71
2023/08/25 00:13:03;;;;;;;17.52;13.20;;;;;;;-140.66;100.00;55571.53;5114237;28;20035;-71
2023/08/25 00:16:48;;;;;;;17.42;14.00;;;;;;;-140.66;100.00;55571.53;5129065;27;20478;-72
2023/08/25 00:20:32;;;;;;;18.63;14.07;;;;;;;-140.66;100.00;55571.53;5117099;28;20059;-71
2023/08/25 00:24:16;;;;;;;18.25;13.95;;;;;;;-140.66;100.00;55571.53;5117484;28;20019;-71
2023/08/25 00:28:01;;;;;;;17.85;13.98;;;;;;;-140.66;100.00;55571.53;5117220;28;20118;-73
2023/08/25 00:31:46;;;;;;;18.15;14.70;;;;;;;-140.66;100.00;55571.53;5117465;28;20054;-71
2023/08/25 00:35:30;;;;;;;17.58;14.02;;;;;;;-140.66;100.00;55571.53;5117549;28;20024;-71
2023/08/25 00:39:14;;;;;;;17.58;13.93;;;;;;;-140.66;100.00;55571.53;5115839;28;20032;-72
2023/08/25 00:42:58;;;;;;;17.35;13.70;;;;;;;-140.66;100.00;55571.53;5117026;28;20020;-71
2023/08/25 00:46:43;;;;;;;17.10;14.65;;;;;;;-140.66;100.00;55571.53;5117247;28;20066;-71
2023/08/25 00:50:28;;;;;;;19.58;13.63;;;;;;;-140.66;100.00;55571.53;5116771;28;20373;-71
2023/08/25 00:54:16;;;;;;;19.50;14.35;;;;;;;-140.66;100.00;55571.53;5117190;28;20046;-70
2023/08/25 00:58:03;;;;;;;16.65;13.63;;;;;;;-140.66;100.00;55571.53;5116629;28;20114;-71
2023/08/25 01:01:47;;;;;;;18.48;13.73;;;;;;;-140.66;100.00;55571.53;5115881;28;20031;-73
2023/08/25 01:05:32;;;;;;;15.98;13.25;;;;;;;-140.66;100.00;55571.53;5116833;28;20023;-70
2023/08/25 01:09:18;;;;;;;16.85;13.18;;;;;;;-140.66;100.00;55571.53;5117329;28;20357;-70
2023/08/25 01:13:09;;;;;;;16.85;13.30;;;;;;;-140.66;100.00;55571.53;5116482;28;20039;-71
2023/08/25 01:17:12;;;;;;;15.63;12.50;;;;;;;-140.66;100.00;55571.53;5116573;28;20353;-71
2023/08/25 01:20:58;;;;;;;18.60;12.70;;;;;;;-140.66;100.00;55571.53;5116630;28;20023;-71
2023/08/25 01:25:03;;;;;;;15.40;12.55;;;;;;;-140.66;100.00;55571.53;5116306;28;20024;-70
2023/08/25 01:28:53;;;;;;;17.50;13.63;;;;;;;-140.66;100.00;55571.53;5114871;28;20035;-71
2023/08/25 01:32:38;;;;;;;15.73;12.30;;;;;;;-140.66;100.00;55571.53;5115845;28;20476;-70
2023/08/25 01:36:45;;;;;;;18.02;12.32;;;;;;;-140.66;100.00;55571.53;5116479;28;20114;-71
2023/08/25 01:40:33;;;;;;;18.50;12.73;;;;;;;-140.66;100.00;55571.53;5115769;28;20023;-71
2023/08/25 01:44:19;;;;;;;18.90;12.55;;;;;;;-140.66;100.00;55571.53;5129679;27;20020;-72
2023/08/25 01:48:05;;;;;;;16.83;13.25;;;;;;;-140.66;100.00;55571.53;5115670;28;20066;-71
2023/08/25 01:51:49;;;;;;;15.63;12.90;;;;;;;-140.66;100.00;55571.53;5115683;28;20051;-71
2023/08/25 01:55:34;;;;;;;18.02;13.50;;;;;;;-140.66;100.00;55571.53;5115379;28;20042;-70
2023/08/25 01:59:18;;;;;;;17.48;13.30;;;;;;;-140.66;100.00;55571.53;5115308;28;20361;-70
2023/08/25 02:03:03;;;;;;;14.80;12.98;;;;;;;-140.66;100.00;55571.53;5116512;28;20038;-72
2023/08/25 02:06:47;;;;;;;16.67;12.93;;;;;;;-140.66;100.00;55571.53;5115397;28;20066;-71
2023/08/25 02:10:31;;;;;;;17.73;13.40;;;;;;;-140.66;100.00;55571.53;5128740;27;20118;-71
2023/08/25 02:14:15;;;;;;;18.55;13.43;;;;;;;-140.66;100.00;55571.53;5115191;28;20024;-71
2023/08/25 02:17:59;;;;;;;14.82;12.82;;;;;;;-140.66;100.00;55571.53;5114573;28;20050;-71
2023/08/25 02:21:45;;;;;;;17.55;13.00;;;;;;;-140.66;100.00;55571.53;5128509;27;20114;-71
2023/08/25 02:25:29;;;;;;;19.05;12.88;;;;;;;-140.66;100.00;55571.53;5115917;28;20035;-72
2023/08/25 02:29:13;;;;;;;17.73;13.25;;;;;;;-140.66;100.00;55571.53;5116382;28;20032;-71
2023/08/25 02:32:59;;;;;;;20.25;12.02;;;;;;;-140.66;100.00;55571.53;5115024;28;20031;-72
2023/08/25 02:36:43;;;;;;;15.43;12.18;;;;;;;-140.66;100.00;55571.53;5116365;28;20127;-72
2023/08/25 02:40:27;;;;;;;14.90;12.15;;;;;;;-140.66;100.00;55571.53;5118169;28;20123;-71
2023/08/25 02:44:12;;;;;;;18.10;12.32;;;;;;;-140.66;100.00;55571.53;5123974;28;20027;-69
2023/08/25 02:47:56;;;;;;;15.88;13.32;;;;;;;-140.66;100.00;55571.53;5123758;28;20100;-71
2023/08/25 02:51:40;;;;;;;18.50;12.82;;;;;;;-140.66;100.00;55571.53;5126222;28;20023;-70
2023/08/25 02:55:24;;;;;;;17.10;13.43;;;;;;;-140.66;100.00;55571.53;5126638;28;20028;-70
2023/08/25 02:59:08;;;;;;;16.40;13.93;;;;;;;-140.66;100.00;55571.53;5126687;28;20055;-70
2023/08/25 03:02:53;;;;;;;16.05;13.45;;;;;;;-140.66;100.00;55571.53;5127614;28;20042;-70
2023/08/25 03:06:37;;;;;;;15.05;13.18;;;;;;;-140.66;100.00;55571.53;5122737;28;20466;-71
2023/08/25 03:10:22;;;;;;;19.98;14.57;;;;;;;-140.66;100.00;55571.53;5113688;28;20034;-71
2023/08/25 03:14:06;;;;;;;18.77;14.07;;;;;;;-140.66;100.00;55571.53;5128026;27;20023;-71
2023/08/25 03:17:51;;;;;;;17.23;13.40;;;;;;;-140.66;100.00;55571.53;5114015;28;20046;-71
2023/08/25 03:21:35;;;;;;;17.50;13.80;;;;;;;-140.66;100.00;55571.53;5113804;28;20096;-71
2023/08/25 03:25:19;;;;;;;20.42;14.32;;;;;;;-140.66;100.00;55571.53;5114614;28;20024;-73
2023/08/25 03:29:04;;;;;;;18.98;14.20;;;;;;;-140.66;100.00;55571.53;5116908;28;20027;-71
2023/08/25 03:32:48;;;;;;;21.42;14.68;;;;;;;-140.66;100.00;55571.53;5114690;28;20105;-70
2023/08/25 03:36:33;;;;;;;20.98;14.15;;;;;;;-140.66;100.00;55571.53;5128527;28;20028;-71
2023/08/25 03:40:19;;;;;;;24.08;15.77;;;;;;;-140.66;100.00;55571.53;5134725;28;20095;-70
2023/08/25 03:44:03;;;;;;;18.92;14.70;;;;;;;-140.66;100.00;55571.53;5115677;28;20020;-71
2023/08/25 03:46:49;;;;;;;26.38;14.02;;;;;;;-140.66;100.00;55571.53;5114042;28;20121;-71
2023/08/25 03:50:24;;;;;;;26.77;15.10;;;;;;;-140.66;100.00;55571.53;5127656;28;20027;-72
2023/08/25 03:54:08;;;;;;;21.65;15.55;;;;;;;-140.66;100.00;55571.53;5118214;28;20349;-72
2023/08/25 03:57:52;;;;;;;27.40;15.73;;;;;;;-140.66;100.00;55571.53;5118451;28;20035;-70
2023/08/25 04:01:37;;;;;;;28.30;16.08;;;;;;;-140.66;100.00;55571.53;5118620;28;20031;-71
2023/08/25 04:05:21;;;;;;;21.33;15.73;;;;;;;-140.66;100.00;55571.53;5118655;28;20031;-71
2023/08/25 04:09:05;;;;;;;27.17;17.40;;;;;;;-140.66;100.00;55571.53;5118046;28;20339;-71
2023/08/25 04:12:49;;;;;;;25.38;18.27;;;;;;;-140.66;100.00;55571.53;5118518;28;20020;-72
2023/08/25 04:16:34;;;;;;;23.90;17.40;;;;;;;-140.66;100.00;55571.53;5117661;28;20122;-70
2023/08/25 04:20:18;;;;;;;26.23;16.63;;;;;;;-140.66;100.00;55571.53;5118151;28;20494;-71
2023/08/25 04:24:03;;;;;;;26.55;17.65;;;;;;;-140.66;100.00;55571.53;5117795;28;20411;-70
2023/08/25 04:27:47;;;;;;;24.75;17.98;;;;;;;-140.66;100.00;55571.53;5117372;28;20062;-71
2023/08/25 04:31:31;;;;;;;23.92;18.25;;;;;;;-140.66;100.00;55571.53;5117680;28;20460;-71
2023/08/25 04:35:15;;;;;;;33.75;19.65;;;;;;;-140.66;100.00;55571.53;5117756;28;20035;-72
2023/08/25 04:39:00;;;;;;;26.73;20.73;;;;;;;-140.66;100.00;55571.53;5118233;28;20099;-70
2023/08/25 04:42:44;;;;;;;24.88;18.88;;;;;;;-140.66;100.00;55571.53;5117889;28;20353;-71
2023/08/25 04:46:29;;;;;;;27.77;19.55;;;;;;;-140.66;100.00;55571.53;5116965;28;20030;-71
2023/08/25 04:50:13;;;;;;;28.08;20.15;;;;;;;-140.66;100.00;55571.53;5116857;28;20042;-71
2023/08/25 04:53:58;;;;;;;25.25;18.63;;;;;;;-140.66;100.00;55571.53;5116921;28;20070;-70
2023/08/25 04:57:42;;;;;;;24.80;18.45;;;;;;;-140.66;100.00;55571.53;5116543;28;20361;-71
2023/08/25 05:01:26;;;;;;;27.20;20.27;;;;;;;-140.66;100.00;55571.53;5116860;28;20466;-71
2023/08/25 05:05:11;;;;;;;24.13;18.55;;;;;;;-140.66;100.00;55571.53;5115976;28;20058;-71
2023/08/25 05:08:56;;;;;;;28.08;19.98;;;;;;;-140.66;100.00;55571.53;5116201;28;20028;-71
2023/08/25 05:12:40;;;;;;;27.35;21.77;;;;;;;-140.66;100.00;55571.53;5116422;28;20510;-72
2023/08/25 05:16:25;;;;;;;25.95;19.98;;;;;;;-140.66;100.00;55571.53;5115644;28;20046;-71
2023/08/25 05:20:09;;;;;;;32.10;21.80;;;;;;;-140.66;100.00;55571.53;5116512;28;20024;-71
2023/08/25 05:24:14;;;;;;;25.15;18.23;;;;;;;-140.66;100.00;55571.53;5115940;28;20050;-71
2023/08/25 05:27:58;;;;;;;23.40;18.92;;;;;;;-140.66;100.00;55571.53;5115752;28;20419;-72
2023/08/25 05:31:45;;;;;;;29.13;19.30;;;;;;;-140.66;100.00;55571.53;5116435;28;20035;-71
2023/08/25 05:35:29;;;;;;;26.35;20.05;;;;;;;-140.66;100.00;55571.53;5115691;28;20031;-70
2023/08/25 05:39:14;;;;;;;23.73;18.70;;;;;;;-140.66;100.00;55571.53;5116215;28;20357;-71
2023/08/25 05:42:58;;;;;;;23.75;19.33;;;;;;;-140.66;100.00;55571.53;5116139;28;20093;-72
2023/08/25 05:46:43;;;;;;;25.85;18.25;;;;;;;-140.66;100.00;55571.53;5116345;28;20020;-71
2023/08/25 05:50:27;;;;;;;24.40;18.42;;;;;;;-140.66;100.00;55571.53;5115308;28;20043;-71
2023/08/25 05:54:12;;;;;;;28.83;17.33;;;;;;;-140.66;100.00;55571.53;5116464;28;20077;-71
2023/08/25 05:57:56;;;;;;;23.38;16.20;;;;;;;-140.66;100.00;55571.53;5115943;28;20031;-71
2023/08/25 06:01:41;;;;;;;27.27;20.45;;;;;;;-140.66;100.00;55571.53;5115094;28;20039;-68
2023/08/25 06:05:25;;;;;;;26.00;17.40;;;;;;;-140.66;100.00;55571.53;5115553;28;20032;-69
2023/08/25 06:09:09;;;;;;;24.58;17.08;;;;;;;-140.66;100.00;55571.53;5115302;28;20054;-68
2023/08/25 06:12:53;;;;;;;22.80;16.05;;;;;;;-140.66;100.00;55571.53;5115363;28;20446;-69
2023/08/25 06:16:38;;;;;;;22.02;16.70;;;;;;;-140.66;100.00;55571.53;5115291;28;20039;-69
2023/08/25 06:20:23;;;;;;;22.30;16.13;;;;;;;-140.66;100.00;55571.53;5115254;28;20110;-68
2023/08/25 06:24:07;;;;;;;25.50;16.15;;;;;;;-140.66;100.00;55571.53;5129423;27;20118;-68
2023/08/25 06:27:51;;;;;;;29.05;17.45;;;;;;;-140.66;100.00;55571.53;5114757;28;20032;-68
2023/08/25 06:31:38;;;;;;;26.52;18.70;;;;;;;-140.66;100.00;55571.53;5129123;28;20112;-68
2023/08/25 06:35:22;;;;;;;26.95;18.42;;;;;;;-140.66;100.00;55571.53;5128288;28;20045;-67
2023/08/25 06:39:07;;;;;;;22.30;17.50;;;;;;;-140.66;100.00;55571.53;5117072;28;20023;-68
2023/08/25 06:42:51;;;;;;;24.83;16.95;;;;;;;-140.66;100.00;55571.53;5114936;28;20028;-69
2023/08/25 06:46:35;;;;;;;20.30;14.82;;;;;;;-140.66;100.00;55571.53;5113990;28;20031;-68
2023/08/25 06:50:20;;;;;;;21.70;15.50;;;;;;;-140.66;100.00;55571.53;5113806;28;20032;-68
2023/08/25 06:54:05;;;;;;;22.90;16.67;;;;;;;-140.66;100.00;55571.53;5112794;28;20141;-68
2023/08/25 06:57:49;;;;;;;25.50;15.80;;;;;;;-140.66;100.00;55571.53;5113451;28;20028;-68
2023/08/25 07:01:33;;;;;;;37.03;15.30;;;;;;;-140.66;100.00;55571.53;5114799;28;20326;-68
2023/08/25 07:05:18;;;;;;;29.35;17.10;;;;;;;-140.66;100.00;55571.53;5113773;28;20110;-69
2023/08/25 07:09:06;;;;;;;20.83;15.68;;;;;;;-140.66;100.00;55571.53;5113144;28;20035;-68
2023/08/25 07:12:50;;;;;;;26.52;18.90;;;;;;;-140.66;100.00;55571.53;5114096;28;20448;-68
2023/08/25 07:16:34;;;;;;;24.60;14.68;;;;;;;-140.66;100.00;55571.53;5113033;28;20437;-68
2023/08/25 07:20:19;;;;;;;18.75;12.60;;;;;;;-140.66;100.00;55571.53;5113398;28;20028;-67
2023/08/25 07:24:03;;;;;;;17.42;13.45;;;;;;;-140.66;100.00;55571.53;5114287;28;20070;-67
2023/08/25 07:27:48;;;;;;;22.77;13.05;;;;;;;-140.66;100.00;55571.53;5115126;28;20046;-67
2023/08/25 07:31:34;;;;;;;21.55;12.75;;;;;;;-140.66;100.00;55571.53;5128740;28;20114;-68
2023/08/25 07:35:18;;;;;;;15.98;12.85;;;;;;;-140.66;100.00;55571.53;5115604;28;20034;-67
2023/08/25 07:39:03;;;;;;;16.25;11.68;;;;;;;-140.66;100.00;55571.53;5113315;28;20449;-67
2023/08/25 07:42:48;;;;;;;17.15;11.85;;;;;;;-140.66;100.00;55571.53;5113395;28;20062;-68
2023/08/25 07:46:37;;;;;;;16.20;11.52;;;;;;;-140.66;100.00;55571.53;5112731;28;20020;-69
2023/08/25 07:50:23;;;;;;;15.38;11.70;;;;;;;-140.66;100.00;55571.53;5113525;28;20066;-69
2023/08/25 07:54:07;;;;;;;13.98;11.52;;;;;;;-140.66;100.00;55571.53;5113505;28;20122;-69
2023/08/25 07:57:52;;;;;;;14.82;12.07;;;;;;;-140.66;100.00;55571.53;5126996;28;20038;-69
2023/08/25 08:01:36;;;;;;;17.17;12.63;;;;;;;-140.66;100.00;55571.53;5126823;28;20102;-68
2023/08/25 08:05:20;;;;;;;21.17;12.50;;;;;;;-140.66;100.00;55571.53;5113934;28;20035;-69
2023/08/25 08:09:06;;;;;;;16.45;11.38;;;;;;;-140.66;100.00;55571.53;5112461;28;20050;-69
2023/08/25 08:12:50;;;;;;;14.52;11.18;;;;;;;-140.66;100.00;55571.53;5127249;28;20023;-69
2023/08/25 08:16:24;;;;;;;12.00;10.10;;;;;;;-140.66;100.00;55571.53;5113997;28;20019;-68
2023/08/25 08:20:12;;;;;;;13.70;11.05;;;;;;;-140.66;100.00;55571.53;5113931;28;20039;-69
2023/08/25 08:23:31;;;;;;;13.05;10.38;;;;;;;-140.66;100.00;55571.53;5113022;28;20051;-68
2023/08/25 08:27:16;;;;;;;20.15;11.30;;;;;;;-140.66;100.00;55571.53;5113175;28;20039;-69
2023/08/25 08:31:05;;;;;;;15.00;10.85;;;;;;;-140.66;100.00;55571.53;5112400;28;20036;-67
2023/08/25 08:34:47;;;;;;;22.88;11.98;;;;;;;-140.66;100.00;55571.53;5112215;28;20077;-68
2023/08/25 08:38:29;;;;;;;19.42;12.35;;;;;;;-140.66;100.00;55571.53;5115904;28;20483;-67
2023/08/25 08:42:14;;;;;;;14.55;12.70;;;;;;;-140.66;100.00;55571.53;5116574;28;20028;-68
2023/08/25 08:46:01;;;;;;;19.60;14.20;;;;;;;-140.66;100.00;55571.53;5116463;28;20023;-67
2023/08/25 08:49:45;;;;;;;20.17;13.60;;;;;;;-140.66;100.00;55571.53;5115800;28;20369;-67
2023/08/25 08:53:30;;;;;;;17.17;13.35;;;;;;;-140.66;100.00;55571.53;5116785;28;20027;-68
2023/08/25 08:57:15;;;;;;;16.17;12.50;;;;;;;-140.66;100.00;55571.53;5116007;28;20024;-67
2023/08/25 09:00:59;;;;;;;14.77;12.60;;;;;;;-140.66;100.00;55571.53;5117130;28;20023;-67
2023/08/25 09:04:44;;;;;;;15.90;12.60;;;;;;;-140.66;100.00;55571.53;5115602;28;20031;-67
2023/08/25 09:08:30;;;;;;;21.15;12.45;;;;;;;-140.66;100.00;55571.53;5117054;28;20015;-66
2023/08/25 09:12:17;;;;;;;20.35;12.68;;;;;;;-140.66;100.00;55571.53;5115512;28;20027;-67
2023/08/25 09:16:12;;;;;;;29.27;13.75;;;;;;;-140.66;100.00;55571.53;5116103;28;20027;-68
2023/08/25 09:20:10;;;;;;;15.65;11.95;;;;;;;-140.66;100.00;55571.53;5129634;27;20023;-68
2023/08/25 09:23:59;;;;;;;16.55;12.68;;;;;;;-140.66;100.00;55571.53;5129252;27;20457;-68
2023/08/25 09:27:43;;;;;;;17.95;12.40;;;;;;;-140.66;100.00;55571.53;5115616;28;20107;-68
2023/08/25 09:31:36;;;;;;;25.33;12.50;;;;;;;-140.66;100.00;55571.53;5115884;28;20110;-68
2023/08/25 09:35:22;;;;;;;14.55;12.57;;;;;;;-140.66;100.00;55571.53;5116127;28;20019;-67
2023/08/25 09:39:17;;;;;;;13.57;11.25;;;;;;;-140.66;100.00;55571.53;5116213;28;20028;-68
2023/08/25 09:43:05;;;;;;;15.02;11.90;;;;;;;-140.66;100.00;55571.53;5115593;28;20059;-67
2023/08/25 09:46:49;;;;;;;14.05;12.27;;;;;;;-140.66;100.00;55571.53;5115307;28;20457;-68
2023/08/25 09:50:41;;;;;;;14.80;12.07;;;;;;;-140.66;100.00;55571.53;5114837;28;20043;-68
2023/08/25 09:54:28;;;;;;;15.27;11.30;;;;;;;-140.66;100.00;55571.53;5115890;28;20019;-66
2023/08/25 09:58:12;;;;;;;16.42;12.02;;;;;;;-140.66;100.00;55571.53;5115190;28;20023;-67
2023/08/25 10:01:58;;;;;;;16.73;12.30;;;;;;;-140.66;100.00;55571.53;5115751;28;20027;-70
2023/08/25 10:05:44;;;;;;;13.82;12.00;;;;;;;-140.66;100.00;55571.53;5115974;28;20035;-71
2023/08/25 10:09:28;;;;;;;16.17;12.63;;;;;;;-140.66;100.00;55571.53;5114890;28;20023;-69
2023/08/25 10:13:15;;;;;;;18.75;12.07;;;;;;;-140.66;100.00;55571.53;5115777;28;20020;-71
2023/08/25 10:17:01;;;;;;;22.02;12.25;;;;;;;-140.66;100.00;55571.53;5128647;27;20445;-70
2023/08/25 10:20:47;;;;;;;19.58;11.90;;;;;;;-140.66;100.00;55571.53;5114213;28;20032;-69
2023/08/25 10:24:34;;;;;;;15.77;11.60;;;;;;;-140.66;100.00;55571.53;5114962;28;20088;-69
2023/08/25 10:28:19;;;;;;;18.08;11.75;;;;;;;-140.66;100.00;55571.53;5115368;28;20072;-70
2023/08/25 10:32:04;;;;;;;23.67;10.52;;;;;;;-140.66;100.00;55571.53;5116002;28;20027;-70
2023/08/25 10:35:53;;;;;;;14.90;11.18;;;;;;;-140.66;100.00;55571.53;5115977;28;20074;-69
2023/08/25 10:39:56;;;;;;;14.68;10.77;;;;;;;-140.66;100.00;55571.53;5114610;28;20037;-68
2023/08/25 10:43:44;;;;;;;11.55;10.30;;;;;;;-140.66;100.00;55571.53;5115288;28;20033;-67
2023/08/25 10:47:29;;;;;;;14.20;9.75;;;;;;;-140.66;100.00;55571.53;5114221;28;20130;-69
2023/08/25 10:51:19;;;;;;;12.77;9.57;;;;;;;-140.66;100.00;55571.53;5115758;28;20024;-69
2023/08/25 10:55:29;;;;;;;10.80;9.05;;;;;;;-140.66;100.00;55571.53;5116096;28;20468;-69
2023/08/25 10:59:16;;;;;;;11.23;8.85;;;;;;;-140.66;100.00;55571.53;5114879;28;20031;-68
2023/08/25 11:03:01;;;;;;;13.35;9.07;;;;;;;-140.66;100.00;55571.53;5115297;28;20110;-69
2023/08/25 11:06:49;;;;;;;13.07;8.75;;;;;;;-140.66;100.00;55571.53;5117044;28;20350;-68
2023/08/25 11:10:35;;;;;;;11.90;8.43;;;;;;;-140.66;100.00;55571.53;5117033;28;20023;-68
2023/08/25 11:14:19;;;;;;;11.15;8.70;;;;;;;-140.66;100.00;55571.53;5115654;28;20369;-69
2023/08/25 11:18:04;;;;;;;10.82;7.72;;;;;;;-140.66;100.00;55571.53;5115148;28;20350;-69
2023/08/25 11:21:57;;;;;;;8.68;7.50;;;;;;;-140.66;100.00;55571.53;5115121;28;20412;-68
2023/08/25 11:25:42;;;;;;;31.63;8.68;;;;;;;-140.66;100.00;55571.53;5113360;28;20050;-69
2023/08/25 11:29:27;;;;;;;8.65;7.78;;;;;;;-140.66;100.00;55571.53;5113940;28;20111;-68
2023/08/25 11:33:16;;;;;;;10.95;7.60;;;;;;;-140.66;100.00;55571.53;5112920;28;20020;-68
2023/08/25 11:37:02;;;;;;;11.68;8.13;;;;;;;-140.66;100.00;55571.53;5114130;28;20084;-69
2023/08/25 11:40:47;;;;;;;9.32;8.30;;;;;;;-140.66;100.00;55571.53;5127590;28;20051;-69
2023/08/25 11:44:31;;;;;;;12.15;9.27;;;;;;;-140.66;100.00;55571.53;5114310;28;20036;-68
2023/08/25 11:48:15;;;;;;;22.45;8.60;;;;;;;-140.66;100.00;55571.53;5127494;28;20043;-69
2023/08/25 11:52:02;;;;;;;22.75;8.88;;;;;;;-140.66;100.00;55571.53;5113164;28;20034;-69
2023/08/25 11:55:59;;;;;;;19.73;8.38;;;;;;;-140.66;100.00;55571.53;5114774;28;20055;-69
2023/08/25 11:59:48;;;;;;;16.33;8.45;;;;;;;-140.66;100.00;55571.53;5112408;28;20028;-69
2023/08/25 12:03:33;;;;;;;11.23;7.78;;;;;;;-140.66;100.00;55571.53;5114852;28;20028;-68
2023/08/25 12:07:24;;;;;;;14.88;8.88;;;;;;;-140.66;100.00;55571.53;5113366;28;20034;-70
2023/08/25 12:11:09;;;;;;;9.80;7.28;;;;;;;-140.66;100.00;55571.53;5115302;28;20373;-70
2023/08/25 12:14:53;;;;;;;22.17;8.63;;;;;;;-140.66;100.00;55571.53;5117118;28;20444;-70
2023/08/25 12:18:42;;;;;;;11.32;8.30;;;;;;;-140.66;100.00;55571.53;5118825;28;20369;-69
2023/08/25 12:22:33;;;;;;;9.82;7.97;;;;;;;-140.66;100.00;55571.53;5117062;28;20020;-70
2023/08/25 12:26:17;;;;;;;21.10;9.43;;;;;;;-140.66;100.00;55571.53;5116789;28;20024;-69
2023/08/25 12:30:04;;;;;;;13.90;8.93;;;;;;;-140.66;100.00;55571.53;5116953;28;20110;-70
2023/08/25 12:33:48;;;;;;;25.98;8.30;;;;;;;-140.66;100.00;55571.53;5117605;28;20411;-69
2023/08/25 12:37:31;;;;;;;8.90;8.00;;;;;;;-140.66;100.00;55571.53;5116618;28;20031;-69
2023/08/25 12:41:19;;;;;;;17.58;8.82;;;;;;;-140.66;100.00;55571.53;5115994;28;20020;-69
2023/08/25 12:45:03;;;;;;;15.23;9.48;;;;;;;-140.66;100.00;55571.53;5116540;28;20072;-70
2023/08/25 12:48:47;;;;;;;10.20;8.38;;;;;;;-140.66;100.00;55571.53;5115925;28;20097;-70
2023/08/25 12:52:33;;;;;;;13.82;8.75;;;;;;;-140.66;100.00;55571.53;5116918;28;20107;-69
2023/08/25 12:56:12;;;;;;;16.23;8.93;;;;;;;-140.66;100.00;55571.53;5117033;28;20354;-68
2023/08/25 12:59:51;;;;;;;27.23;9.63;;;;;;;-140.66;100.00;55571.53;5116727;28;20024;-68
2023/08/25 13:03:12;;;;;;;18.42;8.20;;;;;;;-140.66;100.00;55571.53;5116359;28;20020;-69
2023/08/25 13:06:36;;;;;;;10.05;8.25;;;;;;;-140.66;100.00;55571.53;5115684;28;20030;-69
2023/08/25 13:10:11;;;;;;;49.33;9.45;;;;;;;-140.66;100.00;55571.53;5116868;28;20107;-70
2023/08/25 13:13:59;;;;;;;10.23;8.07;;;;;;;-140.66;100.00;55571.53;5116368;28;20027;-70
2023/08/25 13:17:39;;;;;;;14.65;9.10;;;;;;;-140.66;100.00;55571.53;5116657;28;20398;-70
2023/08/25 13:21:24;;;;;;;14.35;8.40;;;;;;;-140.66;100.00;55571.53;5115995;28;20038;-70
2023/08/25 13:25:08;;;;;;;16.05;8.88;;;;;;;-140.66;100.00;55571.53;5116007;28;20397;-69
2023/08/25 13:28:52;;;;;;;12.40;8.65;;;;;;;-140.66;100.00;55571.53;5115375;28;20104;-69
2023/08/25 13:32:36;;;;;;;14.32;8.20;;;;;;;-140.66;100.00;55571.53;5115496;28;20474;-69
2023/08/25 13:36:21;;;;;;;13.35;8.38;;;;;;;-140.66;100.00;55571.53;5115267;28;20049;-70
2023/08/25 13:40:05;;;;;;;11.93;8.18;;;;;;;-140.66;100.00;55571.53;5115684;28;20038;-69
2023/08/25 13:43:50;;;;;;;11.07;8.20;;;;;;;-140.66;100.00;55571.53;5116629;28;20051;-69
2023/08/25 13:47:34;;;;;;;9.80;8.75;;;;;;;-140.66;100.00;55571.53;5115506;28;20050;-71
2023/08/25 13:51:18;;;;;;;13.10;8.55;;;;;;;-140.66;100.00;55571.53;5115957;28;20023;-70
2023/08/25 13:55:03;;;;;;;12.60;8.48;;;;;;;-140.66;100.00;55571.53;5114864;28;20085;-70
2023/08/25 13:58:47;;;;;;;11.40;8.13;;;;;;;-140.66;100.00;55571.53;5114696;28;20027;-69
2023/08/25 14:02:34;;;;;;;9.15;8.00;;;;;;;-140.66;100.00;55571.53;5115887;28;20116;-70
2023/08/25 14:06:19;;;;;;;10.75;8.43;;;;;;;-140.66;100.00;55571.53;5116115;28;20035;-70
2023/08/25 14:10:04;;;;;;;39.60;9.63;;;;;;;-140.66;100.00;55571.53;5115080;28;20037;-70
2023/08/25 14:13:49;;;;;;;18.50;8.50;;;;;;;-140.66;100.00;55571.53;5114766;28;20032;-69
2023/08/25 14:17:33;;;;;;;19.98;8.65;;;;;;;-140.66;100.00;55571.53;5128580;27;20118;-71
2023/08/25 14:21:18;;;;;;;16.10;8.82;;;;;;;-140.66;100.00;55571.53;5115871;28;20032;-69
2023/08/25 14:25:03;;;;;;;22.45;9.93;;;;;;;-140.66;100.00;55571.53;5114740;28;20032;-70
2023/08/25 14:28:47;;;;;;;14.85;8.65;;;;;;;-140.66;100.00;55571.53;5114880;28;20411;-70
2023/08/25 14:32:31;;;;;;;9.20;7.88;;;;;;;-140.66;100.00;55571.53;5115145;28;20058;-70
2023/08/25 14:36:15;;;;;;;39.03;11.95;;;;;;;-140.66;100.00;55571.53;5113583;28;20060;-68
2023/08/25 14:40:00;;;;;;;15.02;8.80;;;;;;;-140.66;100.00;55571.53;5115052;28;20511;-70
2023/08/25 14:43:45;;;;;;;12.90;8.40;;;;;;;-140.66;100.00;55571.53;5114118;28;20059;-70
2023/08/25 14:47:35;;;;;;;13.43;8.57;;;;;;;-140.66;100.00;55571.53;5127658;27;20051;-71
2023/08/25 14:51:19;;;;;;;10.85;8.48;;;;;;;-140.66;100.00;55571.53;5113906;28;20027;-71
2023/08/25 14:55:03;;;;;;;21.90;9.05;;;;;;;-140.66;100.00;55571.53;5114162;28;20016;-70
2023/08/25 14:58:48;;;;;;;11.15;8.05;;;;;;;-140.66;100.00;55571.53;5115227;28;20043;-69
2023/08/25 15:02:32;;;;;;;15.57;8.85;;;;;;;-140.66;100.00;55571.53;5127377;27;20028;-70
2023/08/25 15:06:16;;;;;;;25.85;9.95;;;;;;;-140.66;100.00;55571.53;5112698;28;20083;-70
2023/08/25 15:10:02;;;;;;;46.05;10.27;;;;;;;-140.66;100.00;55571.53;5113997;28;20356;-71
2023/08/25 15:13:47;;;;;;;15.77;9.23;;;;;;;-140.66;100.00;55571.53;5114300;28;20396;-70
2023/08/25 15:17:31;;;;;;;15.07;9.00;;;;;;;-140.66;100.00;55571.53;5114912;28;20027;-70
2023/08/25 15:21:15;;;;;;;15.65;9.25;;;;;;;-140.66;100.00;55571.53;5113500;28;20461;-70
2023/08/25 15:24:59;;;;;;;11.55;8.65;;;;;;;-140.66;100.00;55571.53;5126582;27;20434;-69
2023/08/25 15:28:43;;;;;;;15.73;8.40;;;;;;;-140.66;100.00;55571.53;5113072;28;20027;-71
2023/08/25 15:32:28;;;;;;;18.00;8.80;;;;;;;-140.66;100.00;55571.53;5113580;28;20039;-69
2023/08/25 15:36:12;;;;;;;34.85;9.77;;;;;;;-140.66;100.00;55571.53;5113748;28;20102;-71
2023/08/25 15:39:56;;;;;;;26.75;9.05;;;;;;;-140.66;100.00;55571.53;5113976;28;20080;-70
2023/08/25 15:43:41;;;;;;;15.45;8.95;;;;;;;-140.66;100.00;55571.53;5114146;28;20039;-70
2023/08/25 15:47:25;;;;;;;25.08;9.38;;;;;;;-140.66;100.00;55571.53;5115737;28;20074;-71
2023/08/25 15:51:09;;;;;;;39.70;9.05;;;;;;;-140.66;100.00;55571.53;5117668;28;20041;-70
2023/08/25 15:54:53;;;;;;;17.17;8.10;;;;;;;-140.66;100.00;55571.53;5117629;28;20028;-70
2023/08/25 15:58:37;;;;;;;33.10;9.18;;;;;;;-140.66;100.00;55571.53;5117678;28;20019;-69
2023/08/25 16:02:22;;;;;;;19.90;8.73;;;;;;;-140.66;100.00;55571.53;5117483;28;20108;-69
2023/08/25 16:06:07;;;;;;;20.02;8.73;;;;;;;-140.66;100.00;55571.53;5117919;28;20020;-69
2023/08/25 16:09:51;;;;;;;52.47;10.98;;;;;;;-140.66;100.00;55571.53;5130667;27;20453;-70
2023/08/25 16:13:40;;;;;;;26.67;9.40;;;;;;;-140.66;100.00;55571.53;5118240;28;20042;-70
2023/08/25 16:17:24;;;;;;;37.60;10.27;;;;;;;-140.66;100.00;55571.53;5118528;28;20456;-70
2023/08/25 16:21:08;;;;;;;25.67;8.75;;;;;;;-140.66;100.00;55571.53;5117440;28;20039;-69
2023/08/25 16:24:53;;;;;;;22.23;9.13;;;;;;;-140.66;100.00;55571.53;5117374;28;20031;-70
2023/08/25 16:28:39;;;;;;;28.83;9.40;;;;;;;-140.66;100.00;55571.53;5117050;28;20357;-69
2023/08/25 16:32:24;;;;;;;31.02;9.25;;;;;;;-140.66;100.00;55571.53;5117938;28;20019;-69
2023/08/25 16:36:08;;;;;;;55.85;10.80;;;;;;;-140.66;100.00;55571.53;5117962;28;20027;-70
2023/08/25 16:39:52;;;;;;;47.30;10.68;;;;;;;-140.66;100.00;55571.53;5117366;28;20055;-69
2023/08/25 16:43:36;;;;;;;27.80;9.18;;;;;;;-140.66;100.00;55571.53;5130692;27;20027;-69